createdAt,value
2023-01-01T00:02:58.227Z,98823.95
2023-01-01T00:08:20.442Z,98814.98
2023-01-01T00:13:42.676Z,98816.50
2023-01-01T00:19:04.508Z,98814.41
2023-01-01T00:24:26.483Z,98809.73
2023-01-01T00:29:48.108Z,98800.61
2023-01-01T00:35:10.279Z,98800.55
2023-01-01T00:40:31.921Z,98808.58
2023-01-01T00:45:53.961Z,98799.14
2023-01-01T00:51:15.647Z,98810.02
2023-01-01T00:56:37.540Z,98814.23
2023-01-01T01:01:59.756Z,98819.75
2023-01-01T01:07:21.648Z,98829.89
2023-01-01T01:12:43.364Z,98830.78
2023-01-01T01:18:05.235Z,98824.81
2023-01-01T01:23:27.268Z,98822.30
2023-01-01T01:28:50.347Z,98821.77
2023-01-01T01:34:16.003Z,98816.86
2023-01-01T01:39:40.793Z,98819.84
2023-01-01T01:45:11.098Z,98820.70
2023-01-01T01:50:34.778Z,98817.12
2023-01-01T01:56:00.779Z,98808.38
2023-01-01T02:01:22.198Z,98812.33
2023-01-01T02:06:45.964Z,98814.71
2023-01-01T02:12:07.635Z,98821.09
2023-01-01T02:17:39.076Z,98810.39
2023-01-01T02:23:26.148Z,98801.15
2023-01-01T02:29:03.627Z,98808.98
2023-01-01T02:34:30.347Z,98820.99
2023-01-01T02:39:56.799Z,98834.59
2023-01-01T02:45:18.736Z,98844.64
2023-01-01T02:50:40.711Z,98846.21
2023-01-01T02:56:13.473Z,98848.30
2023-01-01T03:01:58.808Z,98852.49
2023-01-01T03:07:32.738Z,98843.30
2023-01-01T03:13:00.975Z,98838.04
2023-01-01T03:18:27.443Z,98837.77
2023-01-01T03:23:54.514Z,98846.20
2023-01-01T03:29:16.314Z,98846.83
2023-01-01T03:34:42.122Z,98850.95
2023-01-01T03:40:05.960Z,98843.46
2023-01-01T03:45:38.180Z,98834.42
2023-01-01T03:51:09.173Z,98823.25
2023-01-01T03:56:53.999Z,98817.23
2023-01-01T04:02:19.190Z,98819.31
2023-01-01T04:13:04.801Z,98838.77
2023-01-01T04:18:26.243Z,98849.18
2023-01-01T04:23:48.438Z,98851.52
2023-01-01T04:29:10.040Z,98849.18
2023-01-01T04:34:31.991Z,98845.65
2023-01-01T04:39:53.650Z,98839.95
2023-01-01T04:45:15.704Z,98845.74
2023-01-01T04:50:37.655Z,98853.38
2023-01-01T04:56:09.696Z,98854.26
2023-01-01T05:01:34.965Z,98855.10
2023-01-01T05:06:57.025Z,98861.04
2023-01-01T05:12:18.971Z,98864.98
2023-01-01T05:17:40.665Z,98857.04
2023-01-01T05:23:02.654Z,98846.20
2023-01-01T05:28:24.889Z,98846.35
2023-01-01T05:33:47.180Z,98849.44
2023-01-01T05:39:10.509Z,98853.44
2023-01-01T05:44:32.344Z,98855.08
2023-01-01T05:49:54.838Z,98863.40
2023-01-01T05:55:16.631Z,98868.11
2023-01-01T06:00:38.793Z,98880.07
2023-01-01T06:06:08.473Z,98893.71
2023-01-01T06:11:31.460Z,98903.90
2023-01-01T06:16:53.140Z,98916.50
2023-01-01T06:22:16.638Z,98917.71
2023-01-01T06:27:38.770Z,98934.94
2023-01-01T06:33:01.405Z,98934.77
2023-01-01T06:38:23.642Z,98938.02
2023-01-01T06:43:46.201Z,98943.00
2023-01-01T06:49:11.085Z,98957.45
2023-01-01T06:54:33.006Z,98958.65
2023-01-01T06:59:54.670Z,98971.55
2023-01-01T07:05:16.529Z,98981.04
2023-01-01T07:10:38.293Z,98987.96
2023-01-01T07:16:00.561Z,99000.52
2023-01-01T07:21:31.259Z,99012.59
2023-01-01T07:26:53.035Z,99013.56
2023-01-01T07:32:14.972Z,99015.04
2023-01-01T07:37:36.906Z,99013.75
2023-01-01T07:42:58.871Z,99017.63
2023-01-01T07:48:20.523Z,99025.94
2023-01-01T07:53:42.236Z,99037.76
2023-01-01T07:59:05.002Z,99045.54
2023-01-01T08:04:29.820Z,99046.30
2023-01-01T08:09:51.750Z,99044.73
2023-01-01T08:15:14.929Z,99034.66
2023-01-01T08:20:36.842Z,99038.73
2023-01-01T08:26:00.387Z,99042.45
2023-01-01T08:31:22.913Z,99044.42
2023-01-01T08:36:44.736Z,99044.38
2023-01-01T08:42:12.239Z,99047.34
2023-01-01T08:47:34.763Z,99049.48
2023-01-01T08:52:58.999Z,99062.17
2023-01-01T08:58:20.676Z,99058.22
2023-01-01T09:03:42.524Z,99049.86
2023-01-01T09:09:04.187Z,99049.22
2023-01-01T09:14:26.015Z,99047.70
2023-01-01T09:19:50.060Z,99035.44
2023-01-01T09:25:11.985Z,99038.03
2023-01-01T09:30:34.905Z,99049.48
2023-01-01T09:36:12.057Z,99062.62
2023-01-01T09:41:42.959Z,99053.19
2023-01-01T09:47:06.363Z,99043.55
2023-01-01T09:52:41.516Z,99034.08
2023-01-01T09:58:03.460Z,99040.44
2023-01-01T10:03:27.928Z,99032.83
2023-01-01T10:09:09.881Z,99026.06
2023-01-01T10:14:37.083Z,99024.13
2023-01-01T10:20:10.440Z,99023.91
2023-01-01T10:25:34.162Z,99017.84
2023-01-01T10:31:16.509Z,99019.49
2023-01-01T10:36:38.786Z,99025.11
2023-01-01T10:42:01.327Z,99012.59
2023-01-01T10:47:28.866Z,99014.76
2023-01-01T10:52:56.454Z,99007.21
2023-01-01T10:58:51.020Z,99013.47
2023-01-01T11:04:15.900Z,98995.50
2023-01-01T11:09:39.635Z,98986.73
2023-01-01T11:15:01.880Z,98977.93
2023-01-01T11:20:23.692Z,98970.33
2023-01-01T11:26:09.255Z,98972.23
2023-01-01T11:31:37.116Z,98987.98
2023-01-01T11:37:14.471Z,99006.15
2023-01-01T11:42:37.173Z,99006.15
2023-01-01T11:48:01.318Z,99002.17
2023-01-01T11:53:23.114Z,98991.79
2023-01-01T11:58:55.119Z,98981.93
2023-01-01T12:04:25.291Z,98979.85
2023-01-01T12:10:03.920Z,98981.41
2023-01-01T12:16:08.171Z,98976.73
2023-01-01T12:21:31.343Z,98961.52
2023-01-01T12:27:23.560Z,98961.00
2023-01-01T12:33:08.213Z,98979.66
2023-01-01T12:38:52.127Z,98986.25
2023-01-01T12:44:32.253Z,98989.70
2023-01-01T12:49:57.667Z,98990.39
2023-01-01T12:55:38.072Z,98997.50
2023-01-01T13:01:07.453Z,99004.26
2023-01-01T13:06:38.575Z,98990.23
2023-01-01T13:12:05.155Z,98987.13
2023-01-01T13:17:29.339Z,98987.46
2023-01-01T13:22:51.068Z,98994.54
2023-01-01T13:28:13.330Z,98994.52
2023-01-01T13:33:37.160Z,99003.29
2023-01-01T13:39:07.650Z,99012.77
2023-01-01T13:44:29.628Z,99026.21
2023-01-01T13:50:23.948Z,99039.64
2023-01-01T13:55:54.687Z,99035.79
2023-01-01T14:01:30.722Z,99037.97
2023-01-01T14:06:54.843Z,99045.17
2023-01-01T14:12:21.261Z,99049.60
2023-01-01T14:17:44.033Z,99057.45
2023-01-01T14:23:16.448Z,99064.48
2023-01-01T14:28:38.458Z,99065.84
2023-01-01T14:34:01.896Z,99062.72
2023-01-01T14:39:28.414Z,99064.73
2023-01-01T14:44:50.934Z,99065.02
2023-01-01T14:50:19.447Z,99068.88
2023-01-01T14:55:43.640Z,99082.09
2023-01-01T15:01:23.404Z,99086.83
2023-01-01T15:06:45.524Z,99085.48
2023-01-01T15:12:12.681Z,99095.48
2023-01-01T15:17:45.990Z,99113.45
2023-01-01T15:23:14.960Z,99120.20
2023-01-01T15:28:36.707Z,99118.48
2023-01-01T15:33:58.797Z,99119.70
2023-01-01T15:39:21.743Z,99121.15
2023-01-01T15:44:44.643Z,99125.38
2023-01-01T15:50:09.085Z,99128.00
2023-01-01T15:55:33.483Z,99131.28
2023-01-01T16:01:00.702Z,99132.47
2023-01-01T16:06:27.537Z,99128.48
2023-01-01T16:11:54.348Z,99129.98
2023-01-01T16:17:17.970Z,99123.89
2023-01-01T16:22:39.656Z,99123.80
2023-01-01T16:28:02.275Z,99121.64
2023-01-01T16:33:24.383Z,99121.68
2023-01-01T16:38:58.177Z,99109.04
2023-01-01T16:44:24.394Z,99114.96
2023-01-01T16:49:49.452Z,99122.46
2023-01-01T16:55:11.043Z,99132.25
2023-01-01T17:00:32.926Z,99132.20
2023-01-01T17:05:54.961Z,99139.91
2023-01-01T17:11:17.796Z,99148.62
2023-01-01T17:16:40.384Z,99157.64
2023-01-01T17:22:04.595Z,99150.69
2023-01-01T17:27:26.100Z,99154.70
2023-01-01T17:32:50.404Z,99162.30
2023-01-01T17:38:12.287Z,99170.80
2023-01-01T17:43:35.503Z,99171.73
2023-01-01T17:48:57.612Z,99179.69
2023-01-01T17:54:19.688Z,99179.06
2023-01-01T17:59:41.833Z,99186.34
2023-01-01T18:05:07.167Z,99190.66
2023-01-01T18:10:28.803Z,99191.27
2023-01-01T18:15:50.522Z,99196.55
2023-01-01T18:21:14.599Z,99190.59
2023-01-01T18:26:37.770Z,99190.79
2023-01-01T18:31:59.339Z,99198.02
2023-01-01T18:37:22.768Z,99201.63
2023-01-01T18:42:50.561Z,99197.85
2023-01-01T18:48:13.215Z,99198.20
2023-01-01T18:53:34.886Z,99197.38
2023-01-01T18:58:57.165Z,99200.48
2023-01-01T19:04:19.719Z,99200.89
2023-01-01T19:09:41.800Z,99202.87
2023-01-01T19:15:18.845Z,99208.50
2023-01-01T19:20:40.309Z,99211.69
2023-01-01T19:26:04.382Z,99212.98
2023-01-01T19:31:26.469Z,99219.61
2023-01-01T19:36:48.833Z,99220.79
2023-01-01T19:42:11.511Z,99218.87
2023-01-01T19:47:33.452Z,99221.45
2023-01-01T19:52:55.294Z,99220.96
2023-01-01T19:58:19.918Z,99224.08
2023-01-01T20:03:57.620Z,99219.80
2023-01-01T20:09:19.448Z,99227.05
2023-01-01T20:14:41.263Z,99224.33
2023-01-01T20:20:02.870Z,99224.02
2023-01-01T20:25:24.884Z,99224.90
2023-01-01T20:30:46.949Z,99224.71
2023-01-01T20:36:27.827Z,99232.30
2023-01-01T20:41:50.175Z,99234.56
2023-01-01T20:47:12.948Z,99234.88
2023-01-01T20:52:35.018Z,99228.54
2023-01-01T20:57:57.239Z,99226.77
2023-01-01T21:03:20.904Z,99226.42
2023-01-01T21:08:46.636Z,99228.79
2023-01-01T21:14:12.227Z,99235.11
2023-01-01T21:19:36.463Z,99235.64
2023-01-01T21:25:24.103Z,99227.97
2023-01-01T21:30:55.444Z,99227.54
2023-01-01T21:36:20.073Z,99222.95
2023-01-01T21:41:41.971Z,99222.81
2023-01-01T21:47:16.384Z,99219.70
2023-01-01T21:52:42.696Z,99222.06
2023-01-01T21:58:41.537Z,99215.32
2023-01-01T22:04:09.552Z,99220.27
2023-01-01T22:09:42.196Z,99230.13
2023-01-01T22:15:38.776Z,99229.34
2023-01-01T22:21:02.797Z,99228.23
2023-01-01T22:26:27.972Z,99235.48
2023-01-01T22:31:57.897Z,99228.34
2023-01-01T22:37:22.864Z,99214.02
2023-01-01T22:42:44.678Z,99211.89
2023-01-01T22:48:07.578Z,99205.88
2023-01-01T22:53:29.180Z,99203.02
2023-01-01T22:58:56.831Z,99200.25
2023-01-01T23:04:19.136Z,99200.93
2023-01-01T23:09:41.732Z,99192.08
2023-01-01T23:15:23.195Z,99191.80
2023-01-01T23:20:44.894Z,99185.63
2023-01-01T23:26:08.454Z,99193.77
2023-01-01T23:31:30.119Z,99192.15
2023-01-01T23:36:53.412Z,99189.67
2023-01-01T23:42:15.240Z,99187.98
2023-01-01T23:47:37.171Z,99185.92
2023-01-01T23:52:59.111Z,99183.81
2023-01-01T23:58:20.539Z,99178.75
